createdAt,value
2018-07-26T00:02:58.221Z,3.5
2018-07-26T00:13:43.920Z,4.1
2018-07-26T00:24:29.620Z,3.8
2018-07-26T00:35:15.180Z,3.0
2018-07-26T00:45:28.691Z,3.6
2018-07-26T00:55:43.044Z,2.6
2018-07-26T01:06:28.399Z,3.5
2018-07-26T01:17:14.076Z,3.8
2018-07-26T01:27:25.783Z,2.9
2018-07-26T01:37:40.323Z,1.8
2018-07-26T01:47:54.404Z,2.9
2018-07-26T01:58:08.282Z,2.8
2018-07-26T02:08:22.588Z,1.9
2018-07-26T02:18:36.567Z,2.7
2018-07-26T02:29:21.599Z,5.2
2018-07-26T02:40:08.154Z,3.3
2018-07-26T02:50:52.961Z,4.6
2018-07-26T03:01:38.758Z,5.6
2018-07-26T03:12:04.193Z,3.5
2018-07-26T03:22:18.282Z,5.4
2018-07-26T03:33:03.985Z,5.6
2018-07-26T03:43:49.863Z,5.2
2018-07-26T03:54:35.598Z,5.3
2018-07-26T04:04:47.887Z,4.7
2018-07-26T04:15:00.201Z,5.3
2018-07-26T04:25:45.581Z,6.0
2018-07-26T04:36:00.024Z,5.6
2018-07-26T04:46:12.255Z,5.3
2018-07-26T04:56:26.417Z,7.7
2018-07-26T05:07:11.945Z,7.9
2018-07-26T05:17:25.966Z,6.7
2018-07-26T05:27:41.517Z,5.4
2018-07-26T05:38:26.994Z,8.8
2018-07-26T05:49:14.730Z,7.6
2018-07-26T05:59:29.105Z,8.6
2018-07-26T06:09:43.368Z,7.9
2018-07-26T06:20:29.038Z,11.2
2018-07-26T06:30:40.233Z,9.6
2018-07-26T06:40:54.561Z,8.1
2018-07-26T06:51:08.528Z,8.7
2018-07-26T07:01:21.961Z,10.0
2018-07-26T07:11:36.165Z,10.0
2018-07-26T07:21:49.561Z,7.2
2018-07-26T07:32:00.633Z,8.8
2018-07-26T07:42:13.805Z,5.8
2018-07-26T07:52:27.355Z,6.1
2018-07-26T08:03:12.472Z,7.4
2018-07-26T08:13:26.227Z,4.9
2018-07-26T08:23:40.328Z,4.2
2018-07-26T08:33:54.817Z,3.5
2018-07-26T08:44:08.666Z,2.1
2018-07-26T08:54:53.932Z,2.0
2018-07-26T09:05:06.331Z,2.1
2018-07-26T09:15:51.872Z,2.7
2018-07-26T09:26:37.528Z,3.0
2018-07-26T09:36:51.944Z,1.5
2018-07-26T09:47:37.388Z,2.1
2018-07-26T09:57:50.873Z,1.7
2018-07-26T10:08:01.990Z,1.1
2018-07-26T10:18:16.768Z,1.4
2018-07-26T10:28:30.648Z,1.3
2018-07-26T10:38:44.870Z,1.5
2018-07-26T10:48:58.967Z,1.5
2018-07-26T10:59:13.203Z,1.0
2018-07-26T11:09:24.663Z,0.9
2018-07-26T11:19:38.626Z,1.7
2018-07-26T11:29:53.162Z,0.9
2018-07-26T11:40:05.197Z,1.0
2018-07-26T11:50:19.957Z,1.3
2018-07-26T12:01:06.003Z,1.0
2018-07-26T12:11:52.051Z,1.3
2018-07-26T12:22:37.674Z,1.3
2018-07-26T12:32:49.006Z,1.1
2018-07-26T12:43:35.534Z,1.3
2018-07-26T12:53:47.052Z,1.2
2018-07-26T13:04:01.607Z,1.5
2018-07-26T13:14:13.765Z,1.1
2018-07-26T13:24:25.923Z,1.1
2018-07-26T13:34:39.732Z,1.5
2018-07-26T13:56:13.005Z,1.2
2018-07-26T14:07:13.012Z,1.5
2018-07-26T14:18:04.820Z,2.1
2018-07-26T14:29:27.572Z,1.5
2018-07-26T14:41:11.121Z,1.7
2018-07-26T14:52:09.914Z,1.1
2018-07-26T15:02:59.754Z,1.4
2018-07-26T15:13:32.005Z,1.5
2018-07-26T15:23:54.930Z,1.9
2018-07-26T15:34:56.447Z,1.6
2018-07-26T15:45:19.842Z,1.2
2018-07-26T15:55:33.617Z,1.2
2018-07-26T16:05:45.656Z,1.2
2018-07-26T16:16:01.271Z,1.9
2018-07-26T16:26:15.100Z,1.6
2018-07-26T16:36:29.794Z,1.0
2018-07-26T16:46:44.020Z,1.2
2018-07-26T16:56:57.783Z,1.4
2018-07-26T17:07:49.384Z,1.2
2018-07-26T17:18:01.127Z,0.9
2018-07-26T17:28:15.970Z,1.2
2018-07-26T17:38:30.633Z,1.7
2018-07-26T17:49:18.166Z,2.3
2018-07-26T18:00:04.129Z,1.8
2018-07-26T18:10:18.536Z,1.1
2018-07-26T18:20:33.061Z,0.8
2018-07-26T18:30:46.913Z,1.5
2018-07-26T18:41:00.732Z,2.0
2018-07-26T18:51:11.878Z,1.6
2018-07-26T19:07:44.336Z,1.4
2018-07-26T19:18:30.407Z,1.7
2018-07-26T19:28:44.955Z,1.3
2018-07-26T19:39:30.102Z,1.7
2018-07-26T19:50:15.858Z,1.1
2018-07-26T20:01:01.800Z,1.9
2018-07-26T20:29:07.844Z,2.0
2018-07-26T20:39:53.614Z,1.8
2018-07-26T20:50:07.912Z,2.0
2018-07-26T21:00:53.689Z,2.0
2018-07-26T21:11:07.540Z,1.7
2018-07-26T21:21:22.065Z,2.1
2018-07-26T21:31:37.342Z,1.5
2018-07-26T21:41:49.712Z,2.2
2018-07-26T21:52:03.695Z,1.7
2018-07-26T22:02:18.061Z,1.7
2018-07-26T22:13:04.822Z,2.0
2018-07-26T22:23:50.514Z,2.0
2018-07-26T22:34:36.074Z,2.2
2018-07-26T22:45:22.127Z,2.0
2018-07-26T22:56:07.710Z,2.1
2018-07-26T23:06:53.540Z,2.1
2018-07-26T23:17:39.452Z,1.7
2018-07-26T23:28:25.058Z,2.2
2018-07-26T23:39:11.056Z,2.9
2018-07-26T23:49:56.637Z,2.2
